Time;durP1;ratioP1;P1;durP2;ratioP2;P2;SDS_P1;SDS_P2;PMS_P1;PMS_P2;Temp;Humidity;BMP_temperature;BMP_pressure;BME280_temperature;BME280_humidity;BME280_pressure;Samples;Min_cycle;Max_cycle;Signal;HPM_P1;HPM_P2
2023/09/23 00:01:37;;;;;;;0.50;0.50;;;12.20;99.90;;;;;;5107105;28;20044;-74
2023/09/23 00:04:03;;;;;;;0.55;0.55;;;12.20;99.90;;;;;;5108162;28;20104;-73
2023/09/23 00:06:29;;;;;;;0.47;0.47;;;12.20;99.90;;;;;;5107102;28;20123;-73
2023/09/23 00:08:55;;;;;;;0.55;0.55;;;12.10;99.90;;;;;;5106963;28;20142;-72
2023/09/23 00:11:21;;;;;;;0.40;0.40;;;12.20;99.90;;;;;;5107433;28;20096;-73
2023/09/23 00:13:47;;;;;;;0.40;0.40;;;12.20;99.90;;;;;;5111262;28;20040;-73
2023/09/23 00:16:14;;;;;;;0.20;0.20;;;12.10;99.90;;;;;;5111703;28;20050;-73
2023/09/23 00:18:40;;;;;;;0.40;0.40;;;12.10;99.90;;;;;;5111398;28;20043;-73
2023/09/23 00:21:07;;;;;;;0.60;0.60;;;12.10;99.90;;;;;;5109902;28;20045;-74
2023/09/23 00:23:34;;;;;;;1.65;1.05;;;12.10;99.90;;;;;;5109566;28;20036;-73
2023/09/23 00:26:01;;;;;;;0.40;0.40;;;12.10;99.90;;;;;;5111719;28;20122;-73
2023/09/23 00:28:28;;;;;;;0.30;0.30;;;12.10;99.90;;;;;;5110541;28;20048;-73
2023/09/23 00:31:01;;;;;;;0.40;0.40;;;12.10;99.90;;;;;;5109117;28;20498;-73
2023/09/23 00:33:27;;;;;;;0.40;0.40;;;12.10;99.90;;;;;;5110877;28;20047;-73
2023/09/23 00:35:52;;;;;;;0.40;0.40;;;12.10;99.90;;;;;;5111300;28;20050;-73
2023/09/23 00:38:19;;;;;;;0.52;0.52;;;12.00;99.90;;;;;;5111904;28;20102;-73
2023/09/23 00:40:45;;;;;;;0.60;0.60;;;12.00;99.90;;;;;;5108652;28;20059;-73
2023/09/23 00:43:17;;;;;;;0.30;0.30;;;12.00;99.90;;;;;;5111385;28;20049;-73
2023/09/23 00:45:48;;;;;;;0.30;0.30;;;12.00;99.90;;;;;;5111316;28;20039;-73
2023/09/23 00:48:18;;;;;;;0.40;0.40;;;12.00;99.90;;;;;;5111390;28;20070;-73
2023/09/23 00:50:46;;;;;;;0.40;0.40;;;11.90;99.90;;;;;;5104539;28;20043;-73
2023/09/23 00:53:13;;;;;;;0.50;0.50;;;11.90;99.90;;;;;;5111456;28;20051;-73
2023/09/23 00:55:51;;;;;;;0.30;0.30;;;11.90;99.90;;;;;;5109268;28;20075;-73
2023/09/23 00:58:20;;;;;;;0.40;0.40;;;11.90;99.90;;;;;;5107690;28;20066;-73
2023/09/23 01:00:46;;;;;;;0.40;0.40;;;11.90;99.90;;;;;;5108397;28;20051;-73
2023/09/23 01:03:12;;;;;;;0.68;0.45;;;11.90;99.90;;;;;;5111400;27;20044;-73
2023/09/23 01:05:41;;;;;;;0.40;0.40;;;11.80;99.90;;;;;;5110265;28;20047;-72
2023/09/23 01:08:20;;;;;;;0.50;0.50;;;11.80;99.90;;;;;;5110075;28;20043;-73
2023/09/23 01:10:48;;;;;;;0.82;0.82;;;11.80;99.90;;;;;;5110622;28;20051;-73
2023/09/23 01:13:14;;;;;;;1.30;0.65;;;11.80;99.90;;;;;;5109016;28;20044;-73
2023/09/23 01:15:40;;;;;;;0.40;0.40;;;11.80;99.90;;;;;;5108950;28;20059;-73
2023/09/23 01:18:13;;;;;;;;;;;11.80;99.90;;;;;;5111483;28;20051;-73
2023/09/23 01:20:44;;;;;;;0.30;0.30;;;11.80;99.90;;;;;;5109533;28;19923;-73
2023/09/23 01:23:10;;;;;;;0.30;0.30;;;11.70;99.90;;;;;;5108665;28;20043;-73
2023/09/23 01:25:37;;;;;;;0.45;0.45;;;11.70;99.90;;;;;;5110662;28;20040;-74
2023/09/23 01:28:11;;;;;;;0.47;0.47;;;11.70;99.90;;;;;;5111778;28;20513;-73
2023/09/23 01:30:37;;;;;;;0.30;0.30;;;11.70;99.90;;;;;;5108694;28;20044;-73
2023/09/23 01:33:07;;;;;;;0.38;0.38;;;11.70;99.90;;;;;;5110746;28;20592;-73
2023/09/23 01:35:34;;;;;;;0.30;0.30;;;11.70;99.90;;;;;;5110241;28;20050;-73
2023/09/23 01:38:04;;;;;;;0.25;0.25;;;11.70;99.90;;;;;;5110384;28;20087;-73
2023/09/23 01:40:35;;;;;;;0.40;0.40;;;11.70;99.90;;;;;;5105669;28;20470;-73
2023/09/23 01:43:04;;;;;;;0.40;0.40;;;11.60;99.90;;;;;;5108723;28;20051;-73
2023/09/23 01:45:30;;;;;;;0.40;0.40;;;11.60;99.90;;;;;;5105976;28;20450;-73
2023/09/23 01:47:56;;;;;;;;;;;11.60;99.90;;;;;;5109703;28;20517;-72
2023/09/23 01:50:27;;;;;;;0.50;0.50;;;11.50;99.90;;;;;;5109593;28;19930;-73
2023/09/23 01:52:59;;;;;;;0.40;0.40;;;11.50;99.90;;;;;;5105982;28;20043;-73
2023/09/23 01:55:25;;;;;;;0.40;0.40;;;11.50;99.90;;;;;;5109892;28;20610;-72
2023/09/23 01:57:51;;;;;;;0.40;0.40;;;11.50;99.90;;;;;;5109139;28;20055;-73
2023/09/23 02:00:26;;;;;;;0.50;0.50;;;11.40;99.90;;;;;;5109402;28;20039;-73
2023/09/23 02:02:56;;;;;;;0.40;0.40;;;11.40;99.90;;;;;;5108630;28;20051;-72
2023/09/23 02:05:24;;;;;;;0.50;0.50;;;11.30;99.90;;;;;;5110442;28;20042;-73
2023/09/23 02:07:50;;;;;;;0.35;0.35;;;11.30;99.90;;;;;;5109713;28;20065;-73
2023/09/23 02:10:17;;;;;;;0.70;0.70;;;11.30;99.90;;;;;;5109811;28;20428;-73
2023/09/23 02:12:43;;;;;;;0.40;0.40;;;11.30;99.90;;;;;;5104923;28;20054;-73
2023/09/23 02:15:15;;;;;;;0.30;0.30;;;11.30;99.90;;;;;;5108923;28;20366;-72
2023/09/23 02:17:44;;;;;;;0.30;0.30;;;11.30;99.90;;;;;;5108807;28;20067;-72
2023/09/23 02:20:20;;;;;;;0.50;0.50;;;11.30;99.90;;;;;;5105360;28;20044;-73
2023/09/23 02:22:53;;;;;;;0.30;0.30;;;11.20;99.90;;;;;;5106947;28;20043;-73
2023/09/23 02:25:19;;;;;;;0.30;0.30;;;11.20;99.90;;;;;;5105085;28;20040;-73
2023/09/23 02:27:46;;;;;;;0.50;0.50;;;11.20;99.90;;;;;;5108914;28;20035;-73
2023/09/23 02:30:13;;;;;;;0.50;0.50;;;11.10;99.90;;;;;;5109431;28;20048;-73
2023/09/23 02:32:44;;;;;;;0.40;0.40;;;11.10;99.90;;;;;;5107869;28;20071;-73
2023/09/23 02:35:11;;;;;;;0.82;0.82;;;11.10;99.90;;;;;;5108569;28;20043;-73
2023/09/23 02:37:45;;;;;;;0.40;0.40;;;11.00;99.90;;;;;;5108725;28;20051;-73
2023/09/23 02:40:12;;;;;;;0.50;0.50;;;11.00;99.90;;;;;;5108577;28;20482;-73
2023/09/23 02:42:43;;;;;;;0.70;0.70;;;11.00;99.90;;;;;;5108393;28;20058;-73
2023/09/23 02:45:09;;;;;;;0.43;0.43;;;11.00;99.90;;;;;;5108512;28;20042;-73
2023/09/23 02:47:40;;;;;;;0.57;0.57;;;11.00;99.90;;;;;;5107551;28;20051;-73
2023/09/23 02:50:10;;;;;;;0.50;0.50;;;11.00;99.90;;;;;;5108620;28;20047;-73
2023/09/23 02:52:44;;;;;;;0.47;0.47;;;11.00;99.90;;;;;;5106641;28;20368;-73
2023/09/23 02:55:20;;;;;;;0.50;0.50;;;11.00;99.90;;;;;;5106064;28;20080;-73
2023/09/23 02:57:49;;;;;;;0.30;0.30;;;11.00;99.90;;;;;;5106846;28;20047;-73
2023/09/23 03:00:20;;;;;;;0.40;0.40;;;11.00;99.90;;;;;;5108617;28;20114;-73
2023/09/23 03:02:57;;;;;;;0.40;0.40;;;11.10;99.90;;;;;;5106309;28;20071;-73
2023/09/23 03:05:29;;;;;;;0.40;0.40;;;11.10;99.90;;;;;;5108732;28;20034;-72
2023/09/23 03:07:57;;;;;;;0.40;0.40;;;11.10;99.90;;;;;;5108299;28;20081;-73
2023/09/23 03:10:39;;;;;;;2.83;1.30;;;11.00;99.90;;;;;;5106880;28;20086;-73
2023/09/23 03:13:11;;;;;;;0.35;0.35;;;11.00;99.90;;;;;;5104731;28;20437;-73
2023/09/23 03:15:48;;;;;;;0.43;0.43;;;11.10;99.90;;;;;;5105339;28;20150;-73
2023/09/23 03:18:27;;;;;;;0.43;0.43;;;11.00;99.90;;;;;;5109055;28;20070;-73
2023/09/23 03:20:54;;;;;;;0.40;0.40;;;11.00;99.90;;;;;;5108034;28;20123;-74
2023/09/23 03:23:20;;;;;;;1.15;1.15;;;11.00;99.90;;;;;;5107808;28;20047;-73
2023/09/23 03:25:47;;;;;;;0.57;0.57;;;11.00;99.90;;;;;;5108159;28;20378;-73
2023/09/23 03:28:17;;;;;;;0.45;0.45;;;11.00;99.90;;;;;;5109265;28;20440;-73
2023/09/23 03:30:49;;;;;;;0.50;0.50;;;10.90;99.90;;;;;;5109101;28;20042;-73
2023/09/23 03:33:18;;;;;;;0.50;0.50;;;10.90;99.90;;;;;;5107750;28;20580;-73
2023/09/23 03:35:44;;;;;;;0.32;0.32;;;10.80;99.90;;;;;;5106670;28;20051;-72
2023/09/23 03:38:11;;;;;;;;;;;10.80;99.90;;;;;;5109300;28;20138;-73
2023/09/23 03:40:38;;;;;;;0.40;0.40;;;10.90;99.90;;;;;;5108837;28;19928;-73
2023/09/23 03:43:04;;;;;;;0.98;0.98;;;10.80;99.90;;;;;;5106274;28;20044;-73
2023/09/23 03:45:35;;;;;;;;;;;10.80;99.90;;;;;;5109117;28;20338;-73
2023/09/23 03:48:01;;;;;;;0.63;0.63;;;10.80;99.90;;;;;;5110843;28;19923;-73
2023/09/23 03:50:29;;;;;;;0.52;0.52;;;10.80;99.90;;;;;;5112091;28;20053;-73
2023/09/23 03:52:55;;;;;;;0.40;0.40;;;10.70;99.90;;;;;;5109750;28;20048;-73
2023/09/23 03:55:21;;;;;;;;;;;10.80;99.90;;;;;;5111108;28;20070;-73
2023/09/23 03:57:46;;;;;;;1.00;0.70;;;10.80;99.90;;;;;;5111872;28;19927;-73
2023/09/23 04:00:19;;;;;;;0.77;0.77;;;10.80;99.90;;;;;;5111814;28;20055;-73
2023/09/23 04:02:49;;;;;;;0.60;0.60;;;10.70;99.90;;;;;;5109945;27;20048;-73
2023/09/23 04:05:19;;;;;;;0.50;0.50;;;10.70;99.90;;;;;;5112168;28;20051;-73
2023/09/23 04:07:51;;;;;;;0.80;0.75;;;10.70;99.90;;;;;;5112232;28;20047;-73
2023/09/23 04:10:19;;;;;;;0.50;0.50;;;10.70;99.90;;;;;;5112660;28;20044;-73
2023/09/23 04:12:45;;;;;;;0.43;0.43;;;10.70;99.90;;;;;;5109454;28;20047;-73
2023/09/23 04:15:11;;;;;;;;;;;10.70;99.90;;;;;;5110814;28;20050;-74
2023/09/23 04:17:38;;;;;;;0.60;0.60;;;10.70;99.90;;;;;;5110065;28;19971;-73
2023/09/23 04:20:10;;;;;;;0.50;0.50;;;10.70;99.90;;;;;;5110749;27;20059;-73
2023/09/23 04:22:38;;;;;;;2.08;1.98;;;10.80;99.90;;;;;;5110025;28;20044;-73
2023/09/23 04:25:10;;;;;;;0.65;0.65;;;10.80;99.90;;;;;;5110563;28;20040;-73
2023/09/23 04:27:37;;;;;;;0.57;0.57;;;10.80;99.90;;;;;;5111953;28;20122;-72
2023/09/23 04:30:09;;;;;;;1.13;1.13;;;10.80;99.90;;;;;;5108246;28;20417;-73
2023/09/23 04:32:41;;;;;;;0.93;0.93;;;10.80;99.90;;;;;;5110225;28;20082;-73
2023/09/23 04:35:16;;;;;;;0.47;0.47;;;10.80;99.90;;;;;;5110259;28;20047;-73
2023/09/23 04:37:42;;;;;;;0.60;0.60;;;10.80;99.90;;;;;;5110734;28;20884;-73
2023/09/23 04:40:10;;;;;;;0.40;0.40;;;10.80;99.90;;;;;;5110933;28;20058;-73
2023/09/23 04:42:43;;;;;;;0.95;0.95;;;10.80;99.90;;;;;;5108507;28;20079;-73
2023/09/23 04:45:10;;;;;;;0.50;0.50;;;10.80;99.90;;;;;;5109554;28;20050;-73
2023/09/23 04:47:37;;;;;;;0.75;0.75;;;10.80;99.90;;;;;;5109507;28;20079;-73
2023/09/23 04:50:04;;;;;;;0.38;0.38;;;10.80;99.90;;;;;;5110490;28;20100;-73
2023/09/23 04:52:32;;;;;;;0.50;0.50;;;10.80;99.90;;;;;;5109038;28;20055;-73
2023/09/23 04:54:58;;;;;;;0.95;0.85;;;10.80;99.90;;;;;;5110851;28;20039;-73
2023/09/23 04:57:24;;;;;;;1.35;0.90;;;10.80;99.90;;;;;;5109018;28;20398;-73
2023/09/23 04:59:52;;;;;;;0.40;0.40;;;10.80;99.90;;;;;;5111436;28;20081;-73
2023/09/23 05:02:18;;;;;;;0.80;0.80;;;10.80;99.90;;;;;;5109905;27;20097;-73
2023/09/23 05:04:53;;;;;;;0.35;0.35;;;10.80;99.90;;;;;;5107957;28;20035;-73
2023/09/23 05:07:19;;;;;;;0.95;0.95;;;10.80;99.90;;;;;;5110555;28;20047;-72
2023/09/23 05:09:45;;;;;;;1.00;1.00;;;10.80;99.90;;;;;;5109732;27;20043;-73
2023/09/23 05:12:11;;;;;;;;;;;10.80;99.90;;;;;;5108338;27;20047;-73
2023/09/23 05:14:39;;;;;;;0.32;0.32;;;10.80;99.90;;;;;;5108775;27;19976;-73
2023/09/23 05:17:05;;;;;;;0.38;0.38;;;10.80;99.90;;;;;;5107894;28;20748;-73
2023/09/23 05:19:32;;;;;;;0.40;0.40;;;10.80;99.90;;;;;;5109814;27;20047;-72
2023/09/23 05:21:59;;;;;;;0.50;0.50;;;10.70;99.90;;;;;;5107436;27;20150;-73
2023/09/23 05:24:26;;;;;;;5.57;0.98;;;10.70;99.90;;;;;;5106167;28;20062;-72
2023/09/23 05:26:56;;;;;;;0.65;0.65;;;10.70;99.90;;;;;;5109208;28;20100;-73
2023/09/23 05:29:24;;;;;;;2.95;1.13;;;10.60;99.90;;;;;;5109025;28;20043;-73
2023/09/23 05:31:50;;;;;;;0.30;0.30;;;10.60;99.90;;;;;;5092050;27;20051;-73
2023/09/23 05:34:16;;;;;;;0.50;0.50;;;10.50;99.90;;;;;;5097879;28;20043;-73
2023/09/23 05:36:42;;;;;;;0.40;0.40;;;10.50;99.90;;;;;;5102344;28;20462;-73
2023/09/23 05:39:08;;;;;;;1.33;1.23;;;10.50;99.90;;;;;;5102008;28;20047;-73
2023/09/23 05:41:33;;;;;;;0.50;0.50;;;10.40;99.90;;;;;;5106726;28;20035;-72
2023/09/23 05:43:59;;;;;;;0.50;0.50;;;10.40;99.90;;;;;;5102032;28;20046;-74
2023/09/23 05:46:27;;;;;;;0.60;0.60;;;10.40;99.90;;;;;;5099657;28;20130;-73
2023/09/23 05:48:53;;;;;;;0.50;0.50;;;10.40;99.90;;;;;;5106645;28;20105;-73
2023/09/23 05:51:19;;;;;;;0.63;0.63;;;10.40;99.90;;;;;;5105847;28;20439;-74
2023/09/23 05:53:45;;;;;;;1.75;1.65;;;10.40;99.90;;;;;;5106622;28;20055;-73
2023/09/23 05:56:11;;;;;;;0.68;0.68;;;10.40;99.90;;;;;;5102614;28;20131;-73
2023/09/23 05:58:37;;;;;;;0.40;0.40;;;10.40;99.90;;;;;;5107510;28;20047;-73
2023/09/23 06:01:03;;;;;;;0.50;0.50;;;10.40;99.90;;;;;;5096283;28;20052;-74
2023/09/23 06:03:29;;;;;;;0.60;0.60;;;10.40;99.90;;;;;;5106334;28;20580;-73
2023/09/23 06:05:55;;;;;;;0.50;0.50;;;10.40;99.90;;;;;;5103779;27;20043;-73
2023/09/23 06:08:21;;;;;;;0.70;0.70;;;10.40;99.90;;;;;;5102322;28;20067;-73
2023/09/23 06:10:47;;;;;;;0.60;0.60;;;10.50;99.90;;;;;;5103621;28;20435;-74
2023/09/23 06:13:13;;;;;;;0.73;0.73;;;10.50;99.90;;;;;;5099003;28;20085;-73
2023/09/23 06:15:39;;;;;;;0.60;0.60;;;10.50;99.90;;;;;;5102291;28;20043;-74
2023/09/23 06:18:06;;;;;;;0.40;0.40;;;10.60;99.90;;;;;;5100070;28;20481;-73
2023/09/23 06:20:33;;;;;;;0.70;0.70;;;10.50;99.90;;;;;;5103560;28;20051;-74
2023/09/23 06:22:59;;;;;;;0.40;0.40;;;10.50;99.90;;;;;;5103747;28;20052;-73
2023/09/23 06:25:25;;;;;;;0.60;0.60;;;10.60;99.90;;;;;;5099219;28;20390;-73
2023/09/23 06:27:50;;;;;;;0.50;0.50;;;10.60;99.90;;;;;;5099735;28;20047;-74
2023/09/23 06:30:17;;;;;;;0.70;0.70;;;10.70;99.90;;;;;;5095791;28;20075;-74
2023/09/23 06:32:44;;;;;;;0.98;0.65;;;10.70;99.90;;;;;;5102420;28;20051;-74
2023/09/23 06:35:11;;;;;;;0.73;0.73;;;10.70;99.90;;;;;;5103647;28;20092;-73
2023/09/23 06:37:37;;;;;;;0.68;0.68;;;10.80;99.90;;;;;;5099265;28;20139;-73
2023/09/23 06:40:04;;;;;;;0.60;0.60;;;10.90;99.90;;;;;;5098451;28;20458;-73
2023/09/23 06:42:30;;;;;;;0.60;0.60;;;10.90;99.90;;;;;;5099959;28;20051;-73
2023/09/23 06:44:55;;;;;;;;;;;11.00;99.90;;;;;;5104711;28;20126;-73
2023/09/23 06:47:21;;;;;;;0.60;0.60;;;11.00;99.90;;;;;;5106243;27;20050;-73
2023/09/23 06:49:46;;;;;;;0.98;0.90;;;11.10;99.90;;;;;;5104325;28;20073;-73
2023/09/23 06:52:12;;;;;;;0.80;0.80;;;11.30;99.90;;;;;;5100919;28;20044;-74
2023/09/23 06:54:38;;;;;;;0.90;0.90;;;11.30;99.90;;;;;;5105549;28;20504;-73
2023/09/23 06:57:04;;;;;;;;;;;11.50;99.90;;;;;;5103882;28;20082;-73
2023/09/23 06:59:30;;;;;;;0.45;0.32;;;11.60;99.90;;;;;;5095766;28;19962;-73
2023/09/23 07:01:55;;;;;;;0.98;0.98;;;11.70;99.90;;;;;;5093187;28;20071;-73
2023/09/23 07:04:21;;;;;;;1.58;1.15;;;11.80;99.90;;;;;;5097578;28;20043;-73
2023/09/23 07:06:47;;;;;;;0.70;0.70;;;11.90;99.90;;;;;;5100524;28;20048;-73
2023/09/23 07:09:13;;;;;;;;;;;11.90;99.90;;;;;;5103951;28;20586;-73
2023/09/23 07:11:39;;;;;;;1.85;1.75;;;12.00;99.90;;;;;;5100481;28;19927;-73
2023/09/23 07:14:06;;;;;;;0.40;0.40;;;12.10;99.90;;;;;;5102538;28;20081;-73
2023/09/23 07:16:32;;;;;;;;;;;12.10;99.90;;;;;;5099017;28;20071;-73
2023/09/23 07:18:57;;;;;;;0.70;0.70;;;12.20;99.90;;;;;;5103220;28;20035;-73
2023/09/23 07:21:23;;;;;;;1.00;0.93;;;12.20;99.90;;;;;;5108288;28;20496;-73
2023/09/23 07:23:48;;;;;;;0.50;0.50;;;12.30;99.90;;;;;;5108790;28;20043;-73
2023/09/23 07:26:21;;;;;;;3.78;1.58;;;12.30;99.90;;;;;;5108951;28;20525;-73
2023/09/23 07:28:46;;;;;;;1.23;1.17;;;12.40;99.90;;;;;;5107475;28;20073;-73
2023/09/23 07:31:12;;;;;;;0.90;0.85;;;12.50;99.90;;;;;;5105255;28;20078;-73
2023/09/23 07:33:38;;;;;;;0.65;0.55;;;12.50;99.90;;;;;;5106493;28;20152;-73
2023/09/23 07:36:12;;;;;;;0.35;0.35;;;12.60;99.90;;;;;;5108419;28;20116;-73
2023/09/23 07:38:38;;;;;;;1.05;1.05;;;12.70;99.90;;;;;;5104670;28;20740;-73
2023/09/23 07:41:04;;;;;;;1.20;1.10;;;12.60;99.90;;;;;;5105443;28;20051;-74
2023/09/23 07:43:30;;;;;;;1.15;0.70;;;12.70;99.90;;;;;;5106258;28;20861;-73
2023/09/23 07:45:55;;;;;;;0.75;0.75;;;12.70;99.90;;;;;;5110363;28;20047;-74
2023/09/23 07:48:21;;;;;;;1.40;1.38;;;12.70;99.90;;;;;;5106106;28;20054;-73
2023/09/23 07:50:46;;;;;;;0.73;0.70;;;12.80;99.90;;;;;;5105071;28;20047;-73
2023/09/23 07:53:12;;;;;;;2.00;1.90;;;12.80;99.90;;;;;;5104634;28;20055;-74
2023/09/23 07:55:38;;;;;;;0.40;0.40;;;12.90;99.90;;;;;;5099514;28;20644;-73
2023/09/23 07:58:04;;;;;;;1.15;1.15;;;13.10;99.90;;;;;;5106260;28;20115;-73
2023/09/23 08:00:30;;;;;;;1.15;1.02;;;13.40;99.90;;;;;;5104304;28;20105;-73
2023/09/23 08:02:55;;;;;;;1.30;1.08;;;13.70;99.90;;;;;;5102401;27;20056;-73
2023/09/23 08:05:25;;;;;;;0.32;0.32;;;13.90;99.90;;;;;;5101582;28;20040;-73
2023/09/23 08:07:51;;;;;;;1.15;1.05;;;14.10;99.90;;;;;;5106554;27;20641;-73
2023/09/23 08:10:17;;;;;;;0.30;0.30;;;14.30;99.90;;;;;;5102521;28;20142;-73
2023/09/23 08:12:44;;;;;;;0.40;0.40;;;14.40;99.90;;;;;;5104873;28;20336;-73
2023/09/23 08:15:11;;;;;;;0.93;0.68;;;14.50;99.90;;;;;;5103270;28;20040;-73
2023/09/23 08:17:38;;;;;;;0.77;0.77;;;14.50;99.90;;;;;;5100144;28;20036;-73
2023/09/23 08:20:17;;;;;;;0.50;0.45;;;14.50;99.90;;;;;;5102050;28;20898;-73
2023/09/23 08:22:46;;;;;;;1.20;1.20;;;14.40;99.90;;;;;;5103105;28;20042;-73
2023/09/23 08:25:16;;;;;;;1.00;0.95;;;14.40;99.90;;;;;;5103009;28;20043;-73
2023/09/23 08:27:42;;;;;;;0.98;0.98;;;14.10;99.90;;;;;;5105141;28;20553;-73
2023/09/23 08:30:11;;;;;;;0.80;0.80;;;14.10;99.90;;;;;;5101416;28;20170;-73
2023/09/23 08:32:40;;;;;;;1.63;1.52;;;14.10;99.90;;;;;;5100563;28;20126;-73
2023/09/23 08:35:07;;;;;;;0.70;0.70;;;14.20;99.90;;;;;;5102500;28;20044;-73
2023/09/23 08:37:33;;;;;;;0.35;0.35;;;14.20;99.90;;;;;;5106110;28;20806;-73
2023/09/23 08:39:59;;;;;;;;;;;14.30;99.90;;;;;;5102103;28;20131;-73
2023/09/23 08:42:25;;;;;;;1.10;1.10;;;14.30;99.90;;;;;;5101246;28;20369;-73
2023/09/23 08:44:51;;;;;;;1.75;1.30;;;14.30;99.90;;;;;;5100080;28;20051;-72
2023/09/23 08:47:18;;;;;;;;;;;14.30;99.90;;;;;;5103393;28;20460;-73
2023/09/23 08:49:47;;;;;;;0.88;0.88;;;14.40;99.90;;;;;;5104578;28;19974;-73
2023/09/23 08:52:18;;;;;;;0.68;0.68;;;14.50;99.90;;;;;;5097259;28;20096;-73
2023/09/23 08:54:49;;;;;;;1.25;1.15;;;14.60;99.90;;;;;;5100613;28;20095;-72
2023/09/23 08:57:16;;;;;;;0.85;0.85;;;14.70;99.90;;;;;;5103098;28;20454;-73
2023/09/23 08:59:42;;;;;;;0.82;0.82;;;15.20;99.90;;;;;;5100045;28;20501;-73
2023/09/23 09:02:07;;;;;;;;;;;14.80;99.90;;;;;;5098887;28;20044;-73
2023/09/23 09:04:34;;;;;;;0.95;0.50;;;14.80;99.90;;;;;;5096201;28;19947;-73
2023/09/23 09:06:59;;;;;;;0.50;0.50;;;14.90;99.90;;;;;;5102868;28;20619;-73
2023/09/23 09:09:25;;;;;;;0.52;0.52;;;14.90;99.90;;;;;;5103372;28;20075;-73
2023/09/23 09:11:58;;;;;;;0.77;0.77;;;14.90;99.90;;;;;;5100391;28;20051;-73
2023/09/23 09:14:25;;;;;;;2.72;1.40;;;15.00;99.90;;;;;;5102512;28;20051;-73
2023/09/23 09:16:51;;;;;;;0.95;0.95;;;15.10;99.90;;;;;;5101791;28;20039;-73
2023/09/23 09:19:18;;;;;;;1.52;0.88;;;15.10;99.90;;;;;;5099360;28;20093;-73
2023/09/23 09:21:44;;;;;;;0.88;0.88;;;15.20;99.90;;;;;;5100632;28;20050;-73
2023/09/23 09:24:10;;;;;;;0.45;0.45;;;15.20;99.90;;;;;;5102466;28;20043;-74
2023/09/23 09:26:35;;;;;;;;;;;14.70;99.90;;;;;;5102091;28;20040;-73
2023/09/23 09:29:03;;;;;;;0.93;0.93;;;15.50;99.90;;;;;;5107288;28;19930;-74
2023/09/23 09:31:36;;;;;;;0.60;0.60;;;15.70;99.90;;;;;;5101268;28;20486;-73
2023/09/23 09:34:05;;;;;;;1.35;0.73;;;15.80;99.90;;;;;;5098832;28;20083;-74
2023/09/23 09:36:35;;;;;;;1.00;1.00;;;15.80;99.90;;;;;;5102001;28;20420;-74
2023/09/23 09:39:04;;;;;;;0.33;0.33;;;15.80;99.90;;;;;;5068370;28;1096011;-74
2023/09/23 09:41:39;;;;;;;0.70;0.70;;;15.90;99.90;;;;;;5105504;28;20893;-74
2023/09/23 09:44:07;;;;;;;1.75;1.00;;;16.10;99.90;;;;;;5107565;28;20111;-74
2023/09/23 09:46:35;;;;;;;1.63;1.52;;;16.20;99.90;;;;;;5109669;28;20040;-73
2023/09/23 09:49:02;;;;;;;0.30;0.30;;;16.40;99.90;;;;;;5109619;28;20058;-73
2023/09/23 09:51:30;;;;;;;0.30;0.30;;;16.50;99.90;;;;;;5109392;28;20047;-73
2023/09/23 09:53:56;;;;;;;0.98;0.98;;;16.70;99.90;;;;;;5110602;28;20079;-73
2023/09/23 09:56:24;;;;;;;;;;;17.00;99.90;;;;;;5110701;27;20397;-73
2023/09/23 09:58:50;;;;;;;0.40;0.40;;;17.20;99.90;;;;;;5109639;28;19924;-73
2023/09/23 10:01:17;;;;;;;0.65;0.60;;;17.30;99.90;;;;;;5107067;28;20048;-73
2023/09/23 10:03:45;;;;;;;0.50;0.50;;;17.40;99.90;;;;;;5110431;28;20097;-73
2023/09/23 10:06:21;;;;;;;1.00;0.90;;;17.40;99.90;;;;;;5107411;28;20160;-73
2023/09/23 10:08:51;;;;;;;0.43;0.43;;;17.30;99.90;;;;;;5107023;28;20433;-73
2023/09/23 10:11:28;;;;;;;0.43;0.43;;;17.30;99.90;;;;;;5108782;28;20514;-73
2023/09/23 10:13:54;;;;;;;0.40;0.40;;;17.20;99.90;;;;;;5110646;28;20043;-72
2023/09/23 10:16:27;;;;;;;0.63;0.63;;;17.10;99.90;;;;;;5108822;28;20092;-73
2023/09/23 10:18:55;;;;;;;0.43;0.43;;;16.90;99.90;;;;;;5110265;28;20044;-73
2023/09/23 10:21:27;;;;;;;0.40;0.40;;;16.80;99.90;;;;;;5110361;28;20174;-73
2023/09/23 10:24:02;;;;;;;0.32;0.32;;;16.60;99.90;;;;;;5110201;28;20043;-73
2023/09/23 10:26:28;;;;;;;0.30;0.30;;;16.20;99.90;;;;;;5107667;28;20089;-73
2023/09/23 10:29:01;;;;;;;;;;;15.80;99.90;;;;;;5110467;28;20043;-73
2023/09/23 10:31:32;;;;;;;0.65;0.40;;;15.50;99.90;;;;;;5107450;28;20446;-73
2023/09/23 10:34:03;;;;;;;0.30;0.30;;;15.40;99.90;;;;;;5108769;28;20122;-73
2023/09/23 10:36:29;;;;;;;0.25;0.25;;;15.30;99.90;;;;;;5108436;28;20052;-73
2023/09/23 10:38:55;;;;;;;;;;;15.30;99.90;;;;;;5110096;28;20059;-72
2023/09/23 10:41:22;;;;;;;;;;;15.30;99.90;;;;;;5109960;28;19919;-72
2023/09/23 10:43:55;;;;;;;;;;;15.30;99.90;;;;;;5109319;28;19923;-72
2023/09/23 10:46:20;;;;;;;;;;;15.30;99.90;;;;;;5108412;28;19923;-72
2023/09/23 10:48:46;;;;;;;;;;;15.30;99.90;;;;;;5109704;28;19924;-73
2023/09/23 10:51:12;;;;;;;;;;;15.30;99.90;;;;;;5108645;28;20077;-73
2023/09/23 10:53:38;;;;;;;;;;;15.30;99.90;;;;;;5109478;28;20284;-72
2023/09/23 10:56:04;;;;;;;;;;;15.40;99.90;;;;;;5112159;27;19931;-72
2023/09/23 10:58:33;;;;;;;;;;;15.50;99.90;;;;;;5107309;28;19920;-72
2023/09/23 11:01:00;;;;;;;;;;;15.70;99.90;;;;;;5110193;28;20285;-72
2023/09/23 11:03:25;;;;;;;;;;;15.90;99.90;;;;;;5103559;28;19924;-73
2023/09/23 11:05:51;;;;;;;;;;;16.00;99.90;;;;;;5108419;28;19970;-73
2023/09/23 11:08:18;;;;;;;;;;;16.00;99.90;;;;;;5108964;28;19934;-74
2023/09/23 11:10:44;;;;;;;;;;;15.90;99.90;;;;;;5109282;28;19969;-73
2023/09/23 11:13:11;;;;;;;;;;;15.70;99.90;;;;;;5109253;28;19923;-74
2023/09/23 11:15:38;;;;;;;;;;;15.60;99.90;;;;;;5108558;28;20012;-74
2023/09/23 11:18:10;;;;;;;;;;;15.60;99.90;;;;;;5109968;28;19923;-73
2023/09/23 11:20:38;;;;;;;;;;;15.70;99.90;;;;;;5109035;28;20366;-73
2023/09/23 11:23:05;;;;;;;;;;;15.90;99.90;;;;;;5109886;28;20018;-73
2023/09/23 11:25:38;;;;;;;;;;;15.90;99.90;;;;;;5090462;28;19919;-73
2023/09/23 11:28:03;;;;;;;;;;;16.00;99.90;;;;;;5110276;28;19923;-74
2023/09/23 11:30:29;;;;;;;;;;;16.10;99.90;;;;;;5110095;28;19928;-74
2023/09/23 11:32:55;;;;;;;;;;;16.10;99.90;;;;;;5107464;28;19970;-74
2023/09/23 11:35:24;;;;;;;;;;;16.10;99.90;;;;;;5109016;28;19920;-74
2023/09/23 11:37:50;;;;;;;;;;;16.10;99.90;;;;;;5108586;28;19988;-74
2023/09/23 11:40:16;;;;;;;;;;;16.10;99.90;;;;;;5109341;28;19950;-74
2023/09/23 11:42:41;;;;;;;;;;;16.10;99.90;;;;;;5108789;28;20397;-73
2023/09/23 11:45:07;;;;;;;;;;;16.00;99.90;;;;;;5108674;28;19924;-74
2023/09/23 11:47:33;;;;;;;;;;;16.00;99.90;;;;;;5108814;28;20022;-74
2023/09/23 11:49:59;;;;;;;;;;;15.80;99.90;;;;;;5108918;28;20015;-74
2023/09/23 11:52:25;;;;;;;;;;;15.70;99.90;;;;;;5109981;28;20265;-73
2023/09/23 11:54:50;;;;;;;;;;;15.70;99.90;;;;;;5109190;28;19977;-73
2023/09/23 11:57:16;;;;;;;;;;;15.80;99.90;;;;;;5107443;28;20343;-73
2023/09/23 11:59:42;;;;;;;;;;;15.80;99.90;;;;;;5107083;28;19926;-73
2023/09/23 12:02:08;;;;;;;;;;;15.80;99.90;;;;;;5109741;28;19920;-73
2023/09/23 12:04:34;;;;;;;;;;;15.80;99.90;;;;;;5109204;28;19928;-73
2023/09/23 12:07:00;;;;;;;;;;;15.70;99.90;;;;;;5108360;28;20388;-74
2023/09/23 12:09:26;;;;;;;;;;;15.70;99.90;;;;;;5110083;28;19926;-73
2023/09/23 12:11:51;;;;;;;;;;;15.70;99.90;;;;;;5112434;28;19946;-73
2023/09/23 12:14:19;;;;;;;;;;;15.80;99.90;;;;;;5112857;28;19920;-73
2023/09/23 12:16:45;;;;;;;;;;;15.90;99.90;;;;;;5112582;28;19924;-73
2023/09/23 12:19:11;;;;;;;;;;;15.90;99.90;;;;;;5111979;28;19931;-73
2023/09/23 12:21:37;;;;;;;;;;;15.90;99.90;;;;;;5112400;28;19928;-74
2023/09/23 12:24:03;;;;;;;;;;;16.00;99.90;;;;;;5112117;28;20178;-74
2023/09/23 12:26:31;;;;;;;;;;;16.00;99.90;;;;;;5113021;28;19955;-74
2023/09/23 12:28:57;;;;;;;;;;;16.00;99.90;;;;;;5112041;28;20358;-74
2023/09/23 12:31:23;;;;;;;;;;;16.20;99.90;;;;;;5112484;28;19935;-73
2023/09/23 12:33:50;;;;;;;;;;;16.40;99.90;;;;;;5111733;28;19924;-73
2023/09/23 12:36:16;;;;;;;;;;;16.40;99.90;;;;;;5112679;28;19976;-73
2023/09/23 12:38:42;;;;;;;;;;;16.50;99.90;;;;;;5111839;28;20365;-73
2023/09/23 12:41:07;;;;;;;;;;;16.60;99.90;;;;;;5110361;28;19920;-73
2023/09/23 12:43:33;;;;;;;;;;;16.70;99.90;;;;;;5111520;28;19923;-73
2023/09/23 12:45:58;;;;;;;;;;;16.70;99.90;;;;;;5112161;28;20709;-73
2023/09/23 12:48:24;;;;;;;;;;;16.80;99.90;;;;;;5111988;28;19923;-73
2023/09/23 12:50:51;;;;;;;;;;;16.90;99.90;;;;;;5110198;28;19930;-73
2023/09/23 12:53:16;;;;;;;;;;;17.20;99.90;;;;;;5112720;28;19934;-74
2023/09/23 12:55:42;;;;;;;;;;;17.40;99.90;;;;;;5111745;28;19923;-73
2023/09/23 12:58:08;;;;;;;;;;;17.60;99.90;;;;;;5112090;28;20006;-73
2023/09/23 13:00:33;;;;;;;;;;;17.80;99.90;;;;;;5112076;28;20376;-73
2023/09/23 13:02:59;;;;;;;;;;;17.90;99.90;;;;;;5110254;27;20388;-72
2023/09/23 13:05:24;;;;;;;;;;;18.10;99.90;;;;;;5110752;28;19924;-73
2023/09/23 13:07:50;;;;;;;;;;;18.10;99.90;;;;;;5112220;28;20451;-73
2023/09/23 13:10:16;;;;;;;;;;;18.00;99.90;;;;;;5112344;28;19942;-74